Time;durP1;ratioP1;P1;durP2;ratioP2;P2;SDS_P1;SDS_P2;PMS_P1;PMS_P2;Temp;Humidity;BMP_temperature;BMP_pressure;BME280_temperature;BME280_humidity;BME280_pressure;Samples;Min_cycle;Max_cycle;Signal;HPM_P1;HPM_P2
2021/06/12 00:00:40;;;;;;;;;;;24.00;59.50;;;;;;5033640;28;19927;-63
2021/06/12 00:03:05;;;;;;;;;;;24.10;59.60;;;;;;5057948;28;19970;-64
2021/06/12 00:05:30;;;;;;;;;;;24.00;59.50;;;;;;5047167;28;19924;-62
2021/06/12 00:07:56;;;;;;;;;;;24.10;59.50;;;;;;5057910;28;19929;-64
2021/06/12 00:10:23;;;;;;;;;;;24.10;59.60;;;;;;5034155;28;20313;-62
2021/06/12 00:12:48;;;;;;;;;;;24.10;59.50;;;;;;5028356;28;20015;-64
2021/06/12 00:15:14;;;;;;;;;;;24.00;59.40;;;;;;5048441;28;19931;-63
2021/06/12 00:17:39;;;;;;;;;;;24.10;59.50;;;;;;5036773;28;19920;-62
2021/06/12 00:20:06;;;;;;;;;;;24.10;59.50;;;;;;5052992;28;20301;-63
2021/06/12 00:22:31;;;;;;;;;;;24.10;59.50;;;;;;5043230;28;20031;-62
2021/06/12 00:24:57;;;;;;;;;;;24.10;59.50;;;;;;5048351;28;20417;-64
2021/06/12 00:27:22;;;;;;;;;;;24.10;59.50;;;;;;5055013;28;19932;-65
2021/06/12 00:29:48;;;;;;;;;;;24.10;59.50;;;;;;5056888;28;19928;-65
2021/06/12 00:32:14;;;;;;;;;;;24.00;59.50;;;;;;5056167;28;19927;-65
2021/06/12 00:34:40;;;;;;;;;;;24.10;59.60;;;;;;5050552;28;19924;-64
2021/06/12 00:37:05;;;;;;;;;;;24.00;59.40;;;;;;5031205;28;20396;-65
2021/06/12 00:39:30;;;;;;;;;;;24.10;59.50;;;;;;5051597;28;20007;-65
2021/06/12 00:41:56;;;;;;;;;;;24.10;59.50;;;;;;5047855;28;20274;-64
2021/06/12 00:44:21;;;;;;;;;;;24.10;59.40;;;;;;5051906;28;19920;-65
2021/06/12 00:46:47;;;;;;;;;;;24.00;59.50;;;;;;5050598;28;19955;-66
2021/06/12 00:49:12;;;;;;;;;;;24.00;59.40;;;;;;5029692;28;19951;-66
2021/06/12 00:51:38;;;;;;;;;;;24.10;59.50;;;;;;5047132;28;19917;-64
2021/06/12 00:54:03;;;;;;;;;;;24.10;59.40;;;;;;5050964;28;20178;-64
2021/06/12 00:56:29;;;;;;;;;;;24.10;59.40;;;;;;5045865;28;19920;-65
2021/06/12 00:58:54;;;;;;;;;;;24.10;59.40;;;;;;5033490;28;19970;-62
2021/06/12 01:01:20;;;;;;;;;;;24.10;59.40;;;;;;5052319;28;19917;-65
2021/06/12 01:03:46;;;;;;;;;;;24.00;59.20;;;;;;5047051;28;20405;-63
2021/06/12 01:06:12;;;;;;;;;;;24.10;59.30;;;;;;5029495;28;19920;-64
2021/06/12 01:08:37;;;;;;;;;;;24.00;59.20;;;;;;5045922;28;19932;-68
2021/06/12 01:11:03;;;;;;;;;;;24.00;59.20;;;;;;5028707;28;19917;-65
2021/06/12 01:13:31;;;;;;;;;;;24.10;59.30;;;;;;5035708;28;20445;-62
2021/06/12 01:15:56;;;;;;;;;;;24.10;59.20;;;;;;5025833;28;19917;-66
2021/06/12 01:18:22;;;;;;;;;;;24.10;59.20;;;;;;5050085;28;20366;-66
2021/06/12 01:21:02;;;;;;;;;;;24.10;59.20;;;;;;5027066;28;19917;-64
2021/06/12 01:23:34;;;;;;;;;;;24.10;59.20;;;;;;5046575;28;20156;-65
2021/06/12 01:26:18;;;;;;;;;;;24.10;59.20;;;;;;5047340;28;19932;-62
2021/06/12 01:28:57;;;;;;;;;;;24.10;59.20;;;;;;5050195;28;20089;-64
2021/06/12 01:31:23;;;;;;;;;;;24.00;59.10;;;;;;5037751;28;19954;-66
2021/06/12 01:33:48;;;;;;;;;;;24.10;59.20;;;;;;5031535;28;19925;-63
2021/06/12 01:36:14;;;;;;;;;;;24.00;59.20;;;;;;5033092;28;19920;-65
2021/06/12 01:38:43;;;;;;;;;;;24.10;59.20;;;;;;5050991;28;20020;-64
2021/06/12 01:41:09;;;;;;;;;;;24.10;59.20;;;;;;5050238;28;20067;-65
2021/06/12 01:43:34;;;;;;;;;;;24.10;59.20;;;;;;5047820;28;20352;-65
2021/06/12 01:46:00;;;;;;;;;;;24.10;59.20;;;;;;5028209;28;19927;-64
2021/06/12 01:48:25;;;;;;;;;;;24.10;59.20;;;;;;5049132;28;20354;-65
2021/06/12 01:50:51;;;;;;;;;;;24.10;59.20;;;;;;5045547;28;19964;-65
2021/06/12 01:53:17;;;;;;;;;;;24.10;59.20;;;;;;5026093;28;19917;-65
2021/06/12 01:55:43;;;;;;;;;;;24.10;59.20;;;;;;5041976;28;19916;-66
2021/06/12 01:58:09;;;;;;;;;;;24.10;59.20;;;;;;5042837;28;20421;-66
2021/06/12 02:00:35;;;;;;;;;;;24.00;59.20;;;;;;5049162;28;19967;-64
2021/06/12 02:03:00;;;;;;;;;;;24.10;59.20;;;;;;5030919;28;19921;-62
2021/06/12 02:05:26;;;;;;;;;;;24.10;59.20;;;;;;5031486;28;19920;-64
2021/06/12 02:07:52;;;;;;;;;;;24.10;59.20;;;;;;5052403;28;19932;-62
2021/06/12 02:10:18;;;;;;;;;;;24.10;59.20;;;;;;5034133;28;19921;-65
2021/06/12 02:12:43;;;;;;;;;;;24.10;59.20;;;;;;5048300;28;20314;-63
2021/06/12 02:15:09;;;;;;;;;;;24.10;59.20;;;;;;5029202;28;19916;-63
2021/06/12 02:17:35;;;;;;;;;;;24.10;59.20;;;;;;5029780;28;19966;-65
2021/06/12 02:20:01;;;;;;;;;;;24.00;59.20;;;;;;5038086;28;19929;-64
2021/06/12 02:22:27;;;;;;;;;;;24.00;59.20;;;;;;5042031;28;20450;-62
2021/06/12 02:24:52;;;;;;;;;;;24.00;59.20;;;;;;5043838;28;19917;-63
2021/06/12 02:27:18;;;;;;;;;;;24.00;59.10;;;;;;5053763;28;19920;-66
2021/06/12 02:29:43;;;;;;;;;;;24.10;59.10;;;;;;5050825;28;20204;-66
2021/06/12 02:32:09;;;;;;;;;;;24.10;59.10;;;;;;5049582;28;19920;-62
2021/06/12 02:34:36;;;;;;;;;;;24.10;59.70;;;;;;5037424;22;19933;-59
2021/06/12 02:37:04;;;;;;;;;;;24.00;59.00;;;;;;5020278;28;20431;-61
2021/06/12 02:39:30;;;;;;;;;;;24.10;59.10;;;;;;5014021;28;20301;-62
2021/06/12 02:41:55;;;;;;;;;;;24.10;59.10;;;;;;5017555;28;20302;-62
2021/06/12 02:44:21;;;;;;;;;;;24.00;59.10;;;;;;5002904;28;19933;-60
2021/06/12 02:46:46;;;;;;;;;;;24.00;59.10;;;;;;4997297;28;19922;-61
2021/06/12 02:49:12;;;;;;;;;;;24.00;59.10;;;;;;4993862;28;19929;-61
2021/06/12 02:51:42;;;;;;;;;;;24.10;59.20;;;;;;5000356;28;20508;-61
2021/06/12 02:54:07;;;;;;;;;;;24.00;59.10;;;;;;4997291;28;20191;-59
2021/06/12 02:56:33;;;;;;;;;;;24.00;59.10;;;;;;4983759;28;19918;-61
2021/06/12 02:59:02;;;;;;;;;;;24.00;59.10;;;;;;4996046;28;19932;-61
2021/06/12 03:01:27;;;;;;;;;;;24.00;59.10;;;;;;4999361;28;19932;-60
2021/06/12 03:03:53;;;;;;;;;;;24.00;59.10;;;;;;4995496;28;19917;-60
2021/06/12 03:06:18;;;;;;;;;;;24.00;59.10;;;;;;5001637;28;19926;-60
2021/06/12 03:08:45;;;;;;;;;;;24.10;59.20;;;;;;4996991;28;20828;-61
2021/06/12 03:11:10;;;;;;;;;;;24.00;59.00;;;;;;4997309;28;19939;-61
2021/06/12 03:13:36;;;;;;;;;;;24.00;59.00;;;;;;5004310;28;20478;-61
2021/06/12 03:16:01;;;;;;;;;;;24.00;59.00;;;;;;5005084;28;19979;-61
2021/06/12 03:18:27;;;;;;;;;;;24.00;59.00;;;;;;5003583;28;19932;-60
2021/06/12 03:20:56;;;;;;;;;;;24.00;59.10;;;;;;4993152;28;20362;-60
2021/06/12 03:23:21;;;;;;;;;;;24.00;59.00;;;;;;5004126;28;19921;-61
2021/06/12 03:25:59;;;;;;;;;;;24.00;59.00;;;;;;5006247;28;20387;-61
2021/06/12 03:28:24;;;;;;;;;;;24.00;59.10;;;;;;4999595;28;20432;-60
2021/06/12 03:30:49;;;;;;;;;;;24.00;59.10;;;;;;4996041;28;20001;-61
2021/06/12 03:33:15;;;;;;;;;;;24.00;59.10;;;;;;4997438;28;20399;-61
2021/06/12 03:35:40;;;;;;;;;;;24.00;59.10;;;;;;5007403;28;19921;-60
2021/06/12 03:38:06;;;;;;;;;;;24.00;59.10;;;;;;5001814;28;20429;-60
2021/06/12 03:40:31;;;;;;;;;;;24.00;59.10;;;;;;5000567;28;19918;-60
2021/06/12 03:42:57;;;;;;;;;;;24.00;59.00;;;;;;5000030;28;19917;-60
2021/06/12 03:45:22;;;;;;;;;;;24.00;59.10;;;;;;4999174;28;19921;-60
2021/06/12 03:47:48;;;;;;;;;;;24.00;59.00;;;;;;5007621;28;19944;-60
2021/06/12 03:50:13;;;;;;;;;;;24.00;59.10;;;;;;4999595;28;20023;-60
2021/06/12 03:52:39;;;;;;;;;;;24.00;59.00;;;;;;5002399;28;19922;-61
2021/06/12 03:55:05;;;;;;;;;;;24.00;59.10;;;;;;5005154;28;19925;-60
2021/06/12 03:57:30;;;;;;;;;;;24.00;59.00;;;;;;4999905;28;19921;-59
2021/06/12 03:59:56;;;;;;;;;;;24.00;59.00;;;;;;4998393;28;19956;-61
2021/06/12 04:02:21;;;;;;;;;;;24.00;59.10;;;;;;5003094;28;20018;-61
2021/06/12 04:04:48;;;;;;;;;;;24.00;59.10;;;;;;5004222;28;19918;-60
2021/06/12 04:07:14;;;;;;;;;;;24.00;59.10;;;;;;5001019;28;19929;-60
2021/06/12 04:09:39;;;;;;;;;;;24.00;59.10;;;;;;5009179;28;20456;-63
2021/06/12 04:12:05;;;;;;;;;;;24.00;59.10;;;;;;5001354;28;20589;-60
2021/06/12 04:14:31;;;;;;;;;;;23.90;59.00;;;;;;5000587;28;19925;-60
2021/06/12 04:16:56;;;;;;;;;;;24.00;59.10;;;;;;4999876;28;19925;-59
2021/06/12 04:19:22;;;;;;;;;;;24.00;59.00;;;;;;4998915;28;19918;-60
2021/06/12 04:21:49;;;;;;;;;;;24.00;59.10;;;;;;5000315;28;20628;-60
2021/06/12 04:24:15;;;;;;;;;;;24.00;59.10;;;;;;4999372;28;20374;-60
2021/06/12 04:26:40;;;;;;;;;;;23.90;59.00;;;;;;4996319;28;20011;-61
2021/06/12 04:29:05;;;;;;;;;;;24.00;59.00;;;;;;5001585;28;19921;-61
2021/06/12 04:31:31;;;;;;;;;;;23.90;59.10;;;;;;5000050;28;19924;-61
2021/06/12 04:33:56;;;;;;;;;;;24.00;59.10;;;;;;5012501;28;19921;-61
2021/06/12 04:36:22;;;;;;;;;;;24.00;59.10;;;;;;5004206;28;19917;-60
2021/06/12 04:38:47;;;;;;;;;;;24.00;59.00;;;;;;4991878;28;19918;-61
2021/06/12 04:41:13;;;;;;;;;;;24.00;59.00;;;;;;4994461;28;19932;-60
2021/06/12 04:43:38;;;;;;;;;;;24.00;58.90;;;;;;4999171;28;20391;-61
2021/06/12 04:46:03;;;;;;;;;;;24.00;58.90;;;;;;5000155;28;19917;-60
2021/06/12 04:48:29;;;;;;;;;;;24.00;59.00;;;;;;4998883;28;19929;-61
2021/06/12 04:50:54;;;;;;;;;;;24.00;59.10;;;;;;4999763;28;20733;-59
2021/06/12 04:53:20;;;;;;;;;;;24.00;59.10;;;;;;5000703;28;19984;-60
2021/06/12 04:55:45;;;;;;;;;;;24.00;59.10;;;;;;4998678;28;19917;-61
2021/06/12 04:58:11;;;;;;;;;;;24.00;59.10;;;;;;5000382;28;19925;-60
2021/06/12 05:00:37;;;;;;;;;;;24.00;59.10;;;;;;5010948;28;19932;-58
2021/06/12 05:03:03;;;;;;;;;;;24.00;59.10;;;;;;5007550;28;20394;-59
2021/06/12 05:05:29;;;;;;;;;;;24.00;59.10;;;;;;4999648;28;20084;-60
2021/06/12 05:07:54;;;;;;;;;;;24.00;59.10;;;;;;5002089;28;20354;-59
2021/06/12 05:10:20;;;;;;;;;;;24.00;59.10;;;;;;4999322;28;19926;-59
2021/06/12 05:12:45;;;;;;;;;;;24.00;59.00;;;;;;4995155;28;19921;-60
2021/06/12 05:15:11;;;;;;;;;;;24.00;59.00;;;;;;5002000;28;19922;-60
2021/06/12 05:17:36;;;;;;;;;;;24.10;59.00;;;;;;4999146;28;19925;-61
2021/06/12 05:20:03;;;;;;;;;;;24.10;59.00;;;;;;5004953;28;19929;-59
2021/06/12 05:22:28;;;;;;;;;;;24.10;59.00;;;;;;5006807;28;19925;-60
2021/06/12 05:24:54;;;;;;;;;;;24.00;58.80;;;;;;5000055;28;19917;-60
2021/06/12 05:27:20;;;;;;;;;;;24.00;58.90;;;;;;4999362;28;19917;-61
2021/06/12 05:29:45;;;;;;;;;;;24.00;59.20;;;;;;4998934;28;20393;-62
2021/06/12 05:32:11;;;;;;;;;;;24.00;59.00;;;;;;4993849;28;19924;-62
2021/06/12 05:34:37;;;;;;;;;;;24.00;59.00;;;;;;4999731;28;20646;-61
2021/06/12 05:37:02;;;;;;;;;;;24.00;59.40;;;;;;4999227;28;19921;-62
2021/06/12 05:39:28;;;;;;;;;;;23.90;60.10;;;;;;5000422;28;19964;-62
2021/06/12 05:41:53;;;;;;;;;;;23.90;60.00;;;;;;5000245;28;19917;-61
2021/06/12 05:44:18;;;;;;;;;;;23.90;60.00;;;;;;4999929;28;21604;-61
2021/06/12 05:46:44;;;;;;;;;;;23.90;60.00;;;;;;4999146;28;19979;-62
2021/06/12 05:49:09;;;;;;;;;;;23.90;60.00;;;;;;4990877;28;19937;-60
2021/06/12 05:51:35;;;;;;;;;;;23.80;60.00;;;;;;4999815;28;19940;-61
2021/06/12 05:54:00;;;;;;;;;;;23.80;60.10;;;;;;4993946;28;19922;-61
2021/06/12 05:56:26;;;;;;;;;;;23.80;60.10;;;;;;4978952;28;19925;-61
2021/06/12 05:58:51;;;;;;;;;;;23.80;59.90;;;;;;4999195;28;19924;-62
2021/06/12 06:01:17;;;;;;;;;;;23.80;59.70;;;;;;4999988;28;19917;-62
2021/06/12 06:03:42;;;;;;;;;;;23.80;60.40;;;;;;4998809;28;19917;-61
2021/06/12 06:06:08;;;;;;;;;;;23.80;59.90;;;;;;4997629;28;19924;-61
2021/06/12 06:08:33;;;;;;;;;;;23.80;59.80;;;;;;5005371;28;20397;-61
2021/06/12 06:10:59;;;;;;;;;;;23.80;59.90;;;;;;5005587;28;19917;-62
2021/06/12 06:13:25;;;;;;;;;;;23.70;60.00;;;;;;4986396;28;20362;-61
2021/06/12 06:15:50;;;;;;;;;;;23.70;59.90;;;;;;5002455;28;19940;-62
2021/06/12 06:18:16;;;;;;;;;;;23.70;59.80;;;;;;5008331;28;20298;-61
2021/06/12 06:20:42;;;;;;;;;;;23.80;59.70;;;;;;5001446;28;20634;-62
2021/06/12 06:23:08;;;;;;;;;;;23.70;59.60;;;;;;5000782;28;19918;-61
2021/06/12 06:25:33;;;;;;;;;;;23.70;59.50;;;;;;5006981;28;19964;-61
2021/06/12 06:27:58;;;;;;;;;;;23.70;59.40;;;;;;4999566;28;19928;-60
2021/06/12 06:30:24;;;;;;;;;;;23.70;59.30;;;;;;4999103;28;19918;-59
2021/06/12 06:32:49;;;;;;;;;;;23.70;59.20;;;;;;4999218;28;20234;-61
2021/06/12 06:35:15;;;;;;;;;;;23.70;59.20;;;;;;4999343;28;19921;-61
2021/06/12 06:37:41;;;;;;;;;;;23.70;59.20;;;;;;5000582;28;20575;-62
2021/06/12 06:40:07;;;;;;;;;;;23.70;59.40;;;;;;5001503;28;19917;-61
2021/06/12 06:42:32;;;;;;;;;;;23.70;59.70;;;;;;5000564;28;20459;-61
2021/06/12 06:44:58;;;;;;;;;;;23.70;59.60;;;;;;5004034;28;19921;-61
2021/06/12 06:47:23;;;;;;;;;;;23.70;59.70;;;;;;5002164;28;20559;-62
2021/06/12 06:49:48;;;;;;;;;;;23.70;60.40;;;;;;5002382;28;19921;-61
2021/06/12 06:52:14;;;;;;;;;;;23.70;59.70;;;;;;5005589;28;19928;-61
2021/06/12 06:54:39;;;;;;;;;;;23.60;59.70;;;;;;5004041;28;19923;-61
2021/06/12 06:57:05;;;;;;;;;;;23.60;59.70;;;;;;4998768;28;19918;-61
2021/06/12 06:59:31;;;;;;;;;;;23.70;59.80;;;;;;5008933;28;20025;-61
2021/06/12 07:01:56;;;;;;;;;;;23.60;59.90;;;;;;5005387;28;19917;-61
2021/06/12 07:04:21;;;;;;;;;;;23.60;60.00;;;;;;5009670;28;19937;-61
2021/06/12 07:06:47;;;;;;;;;;;23.60;60.10;;;;;;4987389;28;19926;-60
2021/06/12 07:09:12;;;;;;;;;;;23.60;60.30;;;;;;4999768;28;20555;-61
2021/06/12 07:11:38;;;;;;;;;;;23.60;61.00;;;;;;4995443;28;19917;-60
2021/06/12 07:14:03;;;;;;;;;;;23.60;60.50;;;;;;5014966;28;20382;-60
2021/06/12 07:16:29;;;;;;;;;;;23.50;60.60;;;;;;5002097;28;19924;-62
2021/06/12 07:18:54;;;;;;;;;;;23.50;60.60;;;;;;4998479;28;20112;-59
2021/06/12 07:21:20;;;;;;;;;;;23.60;60.70;;;;;;5015435;28;20004;-62
2021/06/12 07:23:45;;;;;;;;;;;23.60;60.70;;;;;;5007631;28;20587;-60
2021/06/12 07:26:11;;;;;;;;;;;23.60;60.90;;;;;;5005097;28;19924;-63
2021/06/12 07:28:36;;;;;;;;;;;23.60;61.00;;;;;;5003779;28;20448;-60
2021/06/12 07:31:02;;;;;;;;;;;23.60;61.30;;;;;;5003000;28;19924;-61
2021/06/12 07:33:27;;;;;;;;;;;23.60;61.20;;;;;;5003315;28;19918;-61
2021/06/12 07:35:53;;;;;;;;;;;23.60;61.60;;;;;;5002560;28;19922;-61
2021/06/12 07:38:19;;;;;;;;;;;23.50;61.60;;;;;;5005399;28;19921;-61
2021/06/12 07:40:44;;;;;;;;;;;23.60;61.70;;;;;;5009707;28;20309;-59
2021/06/12 07:43:10;;;;;;;;;;;23.60;61.80;;;;;;5013287;28;19918;-61
2021/06/12 07:45:35;;;;;;;;;;;23.60;61.70;;;;;;5010124;28;19923;-61
2021/06/12 07:48:01;;;;;;;;;;;23.60;61.70;;;;;;5009861;28;19952;-62
2021/06/12 07:50:26;;;;;;;;;;;23.50;61.90;;;;;;5001716;28;19928;-62
2021/06/12 07:52:52;;;;;;;;;;;23.50;61.80;;;;;;5004507;28;19918;-61
2021/06/12 07:55:17;;;;;;;;;;;23.50;61.80;;;;;;4999239;28;19917;-62
2021/06/12 07:57:43;;;;;;;;;;;23.50;61.60;;;;;;5009767;28;19918;-61
2021/06/12 08:00:08;;;;;;;;;;;23.50;62.10;;;;;;5014715;28;19971;-62
2021/06/12 08:02:34;;;;;;;;;;;23.60;62.20;;;;;;5002083;28;19921;-60
2021/06/12 08:05:00;;;;;;;;;;;23.60;62.30;;;;;;5001869;28;19924;-60
2021/06/12 08:07:25;;;;;;;;;;;23.60;61.90;;;;;;5009298;28;19917;-60
2021/06/12 08:09:51;;;;;;;;;;;23.60;62.00;;;;;;5002557;28;19932;-60
2021/06/12 08:12:16;;;;;;;;;;;23.60;62.00;;;;;;4992092;28;20555;-62
2021/06/12 08:14:42;;;;;;;;;;;23.60;62.00;;;;;;5007368;28;19924;-63
2021/06/12 08:17:07;;;;;;;;;;;23.60;62.40;;;;;;5003102;28;19926;-62
2021/06/12 08:19:35;;;;;;;;;;;23.60;62.20;;;;;;5001873;28;19924;-62
2021/06/12 08:22:00;;;;;;;;;;;23.60;62.00;;;;;;5001036;28;20117;-62
2021/06/12 08:24:26;;;;;;;;;;;23.60;62.40;;;;;;5003354;28;19928;-61
2021/06/12 08:26:51;;;;;;;;;;;23.60;62.70;;;;;;5004593;28;19933;-63
2021/06/12 08:29:16;;;;;;;;;;;23.60;62.20;;;;;;5007666;28;19944;-62
2021/06/12 08:31:42;;;;;;;;;;;23.60;62.20;;;;;;5001480;28;19941;-63
2021/06/12 08:36:39;;;;;;;;;;;23.60;62.20;;;;;;5043413;28;19928;-63
2021/06/12 08:39:05;;;;;;;;;;;23.60;62.50;;;;;;5053627;28;19963;-63
2021/06/12 08:41:30;;;;;;;;;;;23.60;62.20;;;;;;5048058;28;20182;-62
2021/06/12 08:43:59;;;;;;;;;;;23.60;62.40;;;;;;5026924;28;20274;-62
2021/06/12 08:46:25;;;;;;;;;;;23.60;62.20;;;;;;5052137;28;19947;-63
2021/06/12 08:48:50;;;;;;;;;;;23.60;62.20;;;;;;5031537;28;20289;-63
2021/06/12 08:51:16;;;;;;;;;;;23.60;61.80;;;;;;5029618;28;19925;-64
2021/06/12 08:53:41;;;;;;;;;;;23.50;61.00;;;;;;5027443;28;19917;-64
2021/06/12 08:56:07;;;;;;;;;;;23.50;60.80;;;;;;5048808;28;19917;-63
2021/06/12 08:58:32;;;;;;;;;;;23.50;61.10;;;;;;5051011;28;19955;-63
2021/06/12 09:00:58;;;;;;;;;;;23.50;61.20;;;;;;5051629;28;19947;-64
2021/06/12 09:03:25;;;;;;;;;;;23.50;61.10;;;;;;5051446;28;19920;-64
2021/06/12 09:05:51;;;;;;;;;;;23.50;61.10;;;;;;5051888;28;20316;-64
2021/06/12 09:08:17;;;;;;;;;;;23.50;61.10;;;;;;5034765;28;19931;-64
2021/06/12 09:10:43;;;;;;;;;;;23.50;61.20;;;;;;5049388;28;19922;-65
2021/06/12 09:13:09;;;;;;;;;;;23.50;61.50;;;;;;5047971;28;20206;-64
2021/06/12 09:15:34;;;;;;;;;;;23.50;61.40;;;;;;5049338;28;19955;-64
2021/06/12 09:18:00;;;;;;;;;;;23.60;61.70;;;;;;5050756;28;19920;-64
2021/06/12 09:20:28;;;;;;;;;;;23.50;61.60;;;;;;5044678;28;19952;-63
2021/06/12 09:23:09;;;;;;;;;;;23.60;61.80;;;;;;5047348;28;19916;-63
2021/06/12 09:25:35;;;;;;;;;;;23.60;61.90;;;;;;5049252;28;20403;-64
2021/06/12 09:28:01;;;;;;;;;;;23.60;62.10;;;;;;5028040;28;20279;-63
2021/06/12 09:30:28;;;;;;;;;;;23.60;62.00;;;;;;5045115;28;19927;-63
2021/06/12 09:32:54;;;;;;;;;;;23.60;62.00;;;;;;5025068;28;19921;-63
2021/06/12 09:35:19;;;;;;;;;;;23.60;61.90;;;;;;5051121;28;19931;-64
2021/06/12 09:37:45;;;;;;;;;;;23.50;62.00;;;;;;5026781;28;19917;-63
2021/06/12 09:40:11;;;;;;;;;;;23.50;61.80;;;;;;5042386;28;19925;-63
2021/06/12 09:42:46;;;;;;;;;;;23.50;61.90;;;;;;5045634;28;19963;-63
2021/06/12 09:45:12;;;;;;;;;;;23.60;62.20;;;;;;5051818;28;20322;-64
2021/06/12 09:47:38;;;;;;;;;;;23.60;62.00;;;;;;5045384;28;20276;-63
2021/06/12 09:50:04;;;;;;;;;;;23.50;61.90;;;;;;5052029;28;19924;-63
2021/06/12 09:52:39;;;;;;;;;;;23.60;62.20;;;;;;5038680;28;19931;-62
2021/06/12 09:55:04;;;;;;;;;;;23.60;62.00;;;;;;5046549;28;20003;-63
2021/06/12 09:57:30;;;;;;;;;;;23.50;62.10;;;;;;5028295;28;20003;-63
2021/06/12 09:59:55;;;;;;;;;;;23.50;62.20;;;;;;5046177;28;19921;-63
2021/06/12 10:02:40;;;;;;;;;;;23.50;62.10;;;;;;5043447;28;20031;-63
2021/06/12 10:05:06;;;;;;;;;;;23.50;62.50;;;;;;5041528;28;19924;-63
2021/06/12 10:07:32;;;;;;;;;;;23.50;62.10;;;;;;5046873;28;19918;-64
2021/06/12 10:09:57;;;;;;;;;;;23.50;62.00;;;;;;5046654;28;20664;-63
2021/06/12 10:12:22;;;;;;;;;;;23.50;62.20;;;;;;5048199;28;20027;-64
2021/06/12 10:14:49;;;;;;;;;;;23.50;61.90;;;;;;5030716;28;19920;-63
2021/06/12 10:17:15;;;;;;;;;;;23.50;61.90;;;;;;5034265;28;20428;-64
2021/06/12 10:19:40;;;;;;;;;;;23.50;61.60;;;;;;5027865;28;19920;-63
2021/06/12 10:22:06;;;;;;;;;;;23.50;61.80;;;;;;5029855;28;20530;-63
2021/06/12 10:24:31;;;;;;;;;;;23.50;61.70;;;;;;5030598;28;19921;-63
2021/06/12 10:26:57;;;;;;;;;;;23.60;61.70;;;;;;5047345;28;19925;-63
2021/06/12 10:29:22;;;;;;;;;;;23.60;61.80;;;;;;5028104;28;20351;-63
2021/06/12 10:31:48;;;;;;;;;;;23.50;62.00;;;;;;5029611;28;19952;-64
2021/06/12 10:34:13;;;;;;;;;;;23.60;61.70;;;;;;5028350;28;19921;-63
2021/06/12 10:36:41;;;;;;;;;;;23.60;61.70;;;;;;5025662;28;19921;-63
2021/06/12 10:39:23;;;;;;;;;;;23.50;61.60;;;;;;5030383;28;20246;-64
2021/06/12 10:41:49;;;;;;;;;;;23.60;61.70;;;;;;5024299;28;20749;-64
2021/06/12 10:44:14;;;;;;;;;;;23.60;61.80;;;;;;5030296;28;19982;-64
2021/06/12 10:46:44;;;;;;;;;;;23.60;61.60;;;;;;5020941;28;19947;-63
2021/06/12 10:49:10;;;;;;;;;;;23.60;61.30;;;;;;5023951;28;20293;-64
2021/06/12 10:51:36;;;;;;;;;;;23.60;61.40;;;;;;5048647;28;19924;-63
2021/06/12 10:54:11;;;;;;;;;;;23.60;61.50;;;;;;5048340;28;20294;-63
2021/06/12 10:56:36;;;;;;;;;;;23.60;61.60;;;;;;5042386;28;19925;-64
2021/06/12 10:59:02;;;;;;;;;;;23.60;61.50;;;;;;5042397;28;19917;-63
2021/06/12 11:01:27;;;;;;;;;;;23.60;61.50;;;;;;5032854;28;19920;-63
2021/06/12 11:09:24;;;;;;;;;;;23.50;61.50;;;;;;5051066;28;20397;-63
2021/06/12 11:11:51;;;;;;;;;;;23.60;61.00;;;;;;5042894;28;19921;-63
2021/06/12 11:14:25;;;;;;;;;;;23.60;60.80;;;;;;5051479;28;19917;-63
2021/06/12 11:17:10;;;;;;;;;;;23.50;60.70;;;;;;5038339;28;19927;-63
2021/06/12 11:19:36;;;;;;;;;;;23.60;60.80;;;;;;5033662;28;19923;-63
2021/06/12 11:22:20;;;;;;;;;;;23.60;61.10;;;;;;5038849;28;19917;-63
2021/06/12 11:24:46;;;;;;;;;;;23.50;61.10;;;;;;5044069;28;19916;-63
2021/06/12 11:27:24;;;;;;;;;;;23.60;61.40;;;;;;5050095;28;20295;-63
2021/06/12 11:30:08;;;;;;;;;;;23.50;61.50;;;;;;5056464;28;20441;-63
2021/06/12 11:32:33;;;;;;;;;;;23.60;61.70;;;;;;5045500;28;20245;-63
2021/06/12 11:34:59;;;;;;;;;;;23.60;61.60;;;;;;5042992;28;19932;-63
2021/06/12 11:37:27;;;;;;;;;;;23.60;61.50;;;;;;5051918;28;19925;-63
2021/06/12 11:40:01;;;;;;;;;;;23.60;61.60;;;;;;5041565;28;19924;-64
2021/06/12 11:42:42;;;;;;;;;;;23.60;61.30;;;;;;5024187;28;21311;-64
2021/06/12 11:45:15;;;;;;;;;;;23.60;61.40;;;;;;5040726;28;19921;-64
2021/06/12 11:47:40;;;;;;;;;;;23.60;61.50;;;;;;5048264;28;19921;-64
2021/06/12 11:50:06;;;;;;;;;;;23.60;61.60;;;;;;5049767;28;19931;-64
2021/06/12 11:52:35;;;;;;;;;;;23.60;61.60;;;;;;5051502;28;19916;-64
2021/06/12 11:55:13;;;;;;;;;;;23.60;61.60;;;;;;5043670;28;19920;-63
2021/06/12 11:57:40;;;;;;;;;;;23.60;61.60;;;;;;5047058;28;21921;-64
2021/06/12 12:00:06;;;;;;;;;;;23.60;61.60;;;;;;5008938;28;19930;-64
2021/06/12 12:02:32;;;;;;;;;;;23.60;61.60;;;;;;5012818;28;19923;-64
2021/06/12 12:04:57;;;;;;;;;;;23.60;61.60;;;;;;5012268;28;19920;-63
2021/06/12 12:07:23;;;;;;;;;;;23.60;61.30;;;;;;5048524;28;20021;-63
2021/06/12 12:09:52;;;;;;;;;;;23.60;61.00;;;;;;5038055;28;19936;-63
2021/06/12 12:12:18;;;;;;;;;;;23.60;61.00;;;;;;5000613;28;19921;-64
2021/06/12 12:14:44;;;;;;;;;;;23.70;60.80;;;;;;5031809;28;19924;-63
2021/06/12 12:17:39;;;;;;;;;;;23.70;60.90;;;;;;5013002;28;19920;-64
2021/06/12 12:20:05;;;;;;;;;;;23.70;60.20;;;;;;5034192;28;19921;-63
2021/06/12 12:22:35;;;;;;;;;;;23.70;59.50;;;;;;5053803;28;19920;-64
2021/06/12 12:25:00;;;;;;;;;;;23.60;59.20;;;;;;5045668;28;19924;-64
2021/06/12 12:27:26;;;;;;;;;;;23.70;59.40;;;;;;5052841;28;19966;-63
2021/06/12 12:29:51;;;;;;;;;;;23.70;59.50;;;;;;5052727;28;19985;-64
2021/06/12 12:32:22;;;;;;;;;;;23.70;59.60;;;;;;5046689;28;19982;-64
2021/06/12 12:34:48;;;;;;;;;;;23.60;59.60;;;;;;5050898;28;19940;-63
2021/06/12 12:37:20;;;;;;;;;;;23.70;59.80;;;;;;5051788;28;20006;-63
2021/06/12 12:39:46;;;;;;;;;;;23.70;59.80;;;;;;5046147;28;20007;-63
2021/06/12 12:42:22;;;;;;;;;;;23.70;59.90;;;;;;5031107;28;19920;-63
2021/06/12 12:44:48;;;;;;;;;;;23.60;59.80;;;;;;5050334;28;19921;-63
2021/06/12 12:47:17;;;;;;;;;;;23.70;60.00;;;;;;5032002;28;19965;-63
2021/06/12 12:49:44;;;;;;;;;;;23.60;60.10;;;;;;5035684;28;19985;-64
2021/06/12 12:52:22;;;;;;;;;;;23.60;60.10;;;;;;5049387;28;19921;-63
2021/06/12 12:55:01;;;;;;;;;;;23.60;60.10;;;;;;5031872;28;19979;-64
2021/06/12 12:57:38;;;;;;;;;;;23.60;60.20;;;;;;5031532;28;20003;-63
2021/06/12 13:00:04;;;;;;;;;;;23.60;60.10;;;;;;5026900;28;19977;-63
2021/06/12 13:02:37;;;;;;;;;;;23.60;60.20;;;;;;5030652;28;20027;-63
2021/06/12 13:05:09;;;;;;;;;;;23.60;59.30;;;;;;5046600;28;20569;-63
2021/06/12 13:07:36;;;;;;;;;;;23.60;58.90;;;;;;5033143;28;19970;-63
2021/06/12 13:10:01;;;;;;;;;;;23.60;59.40;;;;;;5049483;28;19916;-63
2021/06/12 13:12:27;;;;;;;;;;;23.60;59.30;;;;;;5057377;28;19920;-63
2021/06/12 13:14:56;;;;;;;;;;;23.60;59.40;;;;;;5031606;28;19917;-63
2021/06/12 13:17:22;;;;;;;;;;;23.60;59.10;;;;;;5013985;28;19963;-63
2021/06/12 13:19:47;;;;;;;;;;;23.70;59.50;;;;;;5031883;28;19960;-63
2021/06/12 13:22:23;;;;;;;;;;;23.70;59.50;;;;;;5048139;28;19924;-63
2021/06/12 13:24:53;;;;;;;;;;;23.60;59.50;;;;;;5029746;28;19917;-63
2021/06/12 13:27:34;;;;;;;;;;;23.60;59.30;;;;;;5044061;28;19947;-63
2021/06/12 13:30:00;;;;;;;;;;;23.60;58.30;;;;;;5025817;28;20397;-62
2021/06/12 13:32:26;;;;;;;;;;;23.60;58.70;;;;;;5032286;28;19972;-63
2021/06/12 13:34:52;;;;;;;;;;;23.60;58.60;;;;;;5036136;28;19925;-64
2021/06/12 13:37:17;;;;;;;;;;;23.70;57.70;;;;;;5051692;28;20324;-62
2021/06/12 13:39:48;;;;;;;;;;;23.60;57.90;;;;;;5048840;28;19916;-63
2021/06/12 13:42:14;;;;;;;;;;;23.60;57.00;;;;;;5025131;28;19917;-63
2021/06/12 13:44:45;;;;;;;;;;;23.60;56.70;;;;;;5038005;28;19923;-62
2021/06/12 13:47:13;;;;;;;;;;;23.60;57.40;;;;;;5030329;28;19923;-63
2021/06/12 13:49:39;;;;;;;;;;;23.60;57.10;;;;;;5043531;28;19925;-62
2021/06/12 13:52:04;;;;;;;;;;;23.60;56.80;;;;;;5045965;28;19927;-62
2021/06/12 13:54:30;;;;;;;;;;;23.60;57.00;;;;;;5016622;28;19925;-64
2021/06/12 13:56:56;;;;;;;;;;;23.60;57.20;;;;;;5049840;28;20024;-62
2021/06/12 13:59:21;;;;;;;;;;;23.60;57.10;;;;;;5021396;28;21798;-64
2021/06/12 14:01:47;;;;;;;;;;;23.60;57.30;;;;;;5051682;28;19924;-64
2021/06/12 14:04:13;;;;;;;;;;;23.60;57.40;;;;;;5053640;28;20011;-64
2021/06/12 14:06:38;;;;;;;;;;;23.60;57.50;;;;;;5033893;28;19927;-64
2021/06/12 14:09:04;;;;;;;;;;;23.60;57.60;;;;;;5033107;28;19924;-64
2021/06/12 14:11:29;;;;;;;;;;;23.50;58.30;;;;;;5045524;28;20108;-63
2021/06/12 14:13:55;;;;;;;;;;;23.50;57.90;;;;;;5043808;28;19965;-63
2021/06/12 14:16:20;;;;;;;;;;;23.50;58.00;;;;;;5048435;28;19928;-63
2021/06/12 14:18:46;;;;;;;;;;;23.50;58.00;;;;;;5051761;28;19917;-63
2021/06/12 14:21:11;;;;;;;;;;;23.50;58.00;;;;;;5013756;28;19928;-63